Time;durP1;ratioP1;P1;durP2;ratioP2;P2;SDS_P1;SDS_P2;PMS_P1;PMS_P2;Temp;Humidity;BMP_temperature;BMP_pressure;BME280_temperature;BME280_humidity;BME280_pressure;Samples;Min_cycle;Max_cycle;Signal;HPM_P1;HPM_P2
2023/01/05 00:01:21;;;;;;;25.53;13.60;;;9.60;89.40;;;;;;5006436;28;20182;-92
2023/01/05 00:03:46;;;;;;;27.03;12.63;;;9.60;89.50;;;;;;5013189;28;20194;-93
2023/01/05 00:06:36;;;;;;;23.90;13.27;;;9.60;89.50;;;;;;5175001;23;20252;-93
2023/01/05 00:38:04;;;;;;;21.13;11.57;;;9.50;89.00;;;;;;3499923;22;20245;-92
2023/01/05 01:16:44;;;;;;;19.93;11.63;;;9.20;88.80;;;;;;5804978;22;20220;-93
2023/01/05 01:29:53;;;;;;;26.43;12.43;;;9.20;88.50;;;;;;3969927;22;20245;-92
2023/01/05 01:32:19;;;;;;;14.57;10.20;;;9.20;88.40;;;;;;5015918;28;20197;-93
2023/01/05 01:34:44;;;;;;;20.43;10.97;;;9.20;88.10;;;;;;5017084;28;20230;-92
2023/01/05 01:37:10;;;;;;;22.27;11.57;;;9.20;88.20;;;;;;5019466;28;20237;-94
2023/01/05 01:39:36;;;;;;;17.60;10.50;;;9.10;88.20;;;;;;5019037;28;20170;-93
2023/01/05 01:42:01;;;;;;;11.83;10.60;;;9.10;88.20;;;;;;5017933;28;20178;-93
2023/01/05 01:44:46;;;;;;;14.80;11.17;;;9.10;88.20;;;;;;5011787;28;20199;-91
2023/01/05 01:55:49;;;;;;;14.63;10.07;;;9.00;87.90;;;;;;5046227;22;20252;-93
2023/01/05 01:58:17;;;;;;;16.97;10.37;;;9.00;87.90;;;;;;5019290;28;20178;-91
2023/01/05 02:00:44;;;;;;;17.97;9.87;;;9.00;88.10;;;;;;5009459;28;20186;-93
2023/01/05 02:03:10;;;;;;;15.23;10.30;;;8.90;87.90;;;;;;5019614;28;20232;-93
2023/01/05 02:05:54;;;;;;;14.03;9.80;;;8.90;87.80;;;;;;5019613;28;20249;-93
2023/01/05 02:08:24;;;;;;;22.57;9.43;;;8.80;88.00;;;;;;5032590;23;20213;-93
2023/01/05 02:11:15;;;;;;;19.27;9.93;;;8.80;87.80;;;;;;5018805;28;20180;-93
2023/01/05 02:13:47;;;;;;;19.13;9.43;;;8.80;87.30;;;;;;5018282;28;20178;-93
2023/01/05 02:16:42;;;;;;;17.60;9.43;;;8.80;86.90;;;;;;5019633;28;20204;-94
2023/01/05 02:19:42;;;;;;;16.93;8.67;;;8.70;87.00;;;;;;5018676;28;20182;-93
2023/01/05 02:22:29;;;;;;;12.80;8.67;;;8.60;86.80;;;;;;5018386;28;20193;-92
2023/01/05 02:25:38;;;;;;;13.33;8.17;;;8.60;86.70;;;;;;5018348;28;20166;-92
2023/01/05 02:28:25;;;;;;;19.63;9.13;;;8.60;86.30;;;;;;5018831;28;20254;-91
2023/01/05 02:31:14;;;;;;;19.07;8.63;;;8.60;86.50;;;;;;5019857;28;20158;-93
2023/01/05 02:33:53;;;;;;;16.67;8.83;;;8.40;86.80;;;;;;5011658;28;20205;-94
2023/01/05 02:36:57;;;;;;;20.70;8.80;;;8.50;87.00;;;;;;5020241;28;20204;-92
2023/01/05 02:39:40;;;;;;;16.27;7.73;;;8.40;87.10;;;;;;4997015;28;20188;-92
2023/01/05 02:42:19;;;;;;;15.17;8.60;;;8.40;87.10;;;;;;5018728;28;20206;-93
2023/01/05 02:44:51;;;;;;;11.90;8.93;;;8.40;87.00;;;;;;5019272;28;20180;-93
2023/01/05 02:47:41;;;;;;;17.83;8.50;;;8.40;86.80;;;;;;5019591;28;20186;-93
2023/01/05 02:50:30;;;;;;;12.83;8.47;;;8.50;86.60;;;;;;5018474;28;20197;-92
2023/01/05 02:53:01;;;;;;;18.03;9.00;;;8.40;86.40;;;;;;5017867;28;20182;-92
2023/01/05 02:55:42;;;;;;;13.67;8.27;;;8.40;86.60;;;;;;5017762;28;20220;-91
2023/01/05 02:58:17;;;;;;;12.93;8.63;;;8.40;86.70;;;;;;5016516;28;20178;-92
2023/01/05 03:01:16;;;;;;;20.83;8.53;;;8.40;86.60;;;;;;5017748;28;20270;-92
2023/01/05 03:03:46;;;;;;;12.40;8.07;;;8.40;86.80;;;;;;5009972;28;20213;-92
2023/01/05 03:06:23;;;;;;;17.53;8.87;;;8.50;86.90;;;;;;5016918;28;20166;-91
2023/01/05 03:08:56;;;;;;;13.30;8.80;;;8.50;86.90;;;;;;5018225;28;20189;-91
2023/01/05 03:14:27;;;;;;;17.10;9.63;;;8.40;87.30;;;;;;5019953;28;20197;-92
2023/01/05 03:16:56;;;;;;;16.00;9.50;;;8.40;87.40;;;;;;5017324;28;20182;-92
2023/01/05 03:19:35;;;;;;;19.40;9.20;;;8.40;87.50;;;;;;5019319;28;20294;-91
2023/01/05 03:36:41;;;;;;;13.20;8.60;;;8.30;87.70;;;;;;5018281;28;20157;-90
2023/01/05 03:39:09;;;;;;;19.10;9.43;;;8.30;87.70;;;;;;5017277;28;20158;-92
2023/01/05 03:41:35;;;;;;;14.60;8.77;;;8.20;87.70;;;;;;5016879;28;20166;-92
2023/01/05 03:44:01;;;;;;;21.67;8.67;;;8.20;87.50;;;;;;5017281;28;20208;-91
2023/01/05 03:46:27;;;;;;;15.70;8.60;;;8.10;87.60;;;;;;5018092;28;20170;-90
2023/01/05 03:48:52;;;;;;;9.77;7.93;;;8.00;87.90;;;;;;5017959;28;20165;-92
2023/01/05 03:51:18;;;;;;;10.17;8.47;;;8.00;88.00;;;;;;5017295;28;20214;-92
2023/01/05 03:53:47;;;;;;;19.83;8.60;;;8.00;87.80;;;;;;5018207;28;20205;-92
2023/01/05 03:56:13;;;;;;;17.60;9.13;;;7.90;87.90;;;;;;5018090;28;20216;-93
2023/01/05 03:58:38;;;;;;;21.23;8.50;;;7.80;88.10;;;;;;5013669;28;20181;-91
2023/01/05 04:01:16;;;;;;;24.63;8.10;;;7.90;88.00;;;;;;5016873;28;20166;-91
2023/01/05 04:03:42;;;;;;;19.10;8.80;;;7.80;88.00;;;;;;5017810;28;20196;-93
2023/01/05 04:06:10;;;;;;;16.10;8.53;;;7.80;88.10;;;;;;5017464;28;20162;-92
2023/01/05 04:08:42;;;;;;;20.30;8.80;;;7.80;88.10;;;;;;5017489;28;20197;-92
2023/01/05 04:11:17;;;;;;;23.60;9.13;;;7.70;88.00;;;;;;5016511;28;20158;-92
2023/01/05 04:13:43;;;;;;;12.57;7.97;;;7.70;88.00;;;;;;5016867;28;20193;-92
2023/01/05 04:16:09;;;;;;;20.47;8.80;;;7.60;88.10;;;;;;5016402;28;20188;-91
2023/01/05 04:18:34;;;;;;;26.13;9.03;;;7.60;88.00;;;;;;5017613;28;20162;-91
2023/01/05 04:21:00;;;;;;;23.20;8.87;;;7.60;88.10;;;;;;5016640;28;20189;-91
2023/01/05 04:23:26;;;;;;;21.33;9.73;;;7.60;88.10;;;;;;5015886;28;20186;-92
2023/01/05 04:25:51;;;;;;;12.50;8.57;;;7.60;88.20;;;;;;5017443;28;20193;-91
2023/01/05 04:28:17;;;;;;;19.80;9.00;;;7.60;88.20;;;;;;5016531;28;20547;-92
2023/01/05 04:30:43;;;;;;;16.03;8.30;;;7.50;88.30;;;;;;5017234;28;20174;-92
2023/01/05 04:33:10;;;;;;;18.60;8.83;;;7.50;88.50;;;;;;5017222;28;20261;-91
2023/01/05 04:35:35;;;;;;;14.20;8.53;;;7.50;88.60;;;;;;5016603;28;20265;-92
2023/01/05 04:38:01;;;;;;;22.90;9.03;;;7.50;88.70;;;;;;5016248;28;20182;-93
2023/01/05 04:40:27;;;;;;;21.27;9.57;;;7.60;88.90;;;;;;5016786;28;20166;-92
2023/01/05 04:42:55;;;;;;;18.07;8.43;;;7.50;89.10;;;;;;5016009;28;20208;-91
2023/01/05 04:45:20;;;;;;;15.37;8.50;;;7.50;89.10;;;;;;5016149;28;20178;-92
2023/01/05 04:47:46;;;;;;;15.53;8.23;;;7.60;89.30;;;;;;5014793;28;20170;-92
2023/01/05 04:50:11;;;;;;;18.23;8.77;;;7.60;89.10;;;;;;5015461;28;20169;-92
2023/01/05 04:52:37;;;;;;;20.73;8.63;;;7.50;89.10;;;;;;5010921;28;20197;-91
2023/01/05 04:55:04;;;;;;;24.47;8.20;;;7.60;89.10;;;;;;5010807;28;20221;-91
2023/01/05 04:57:29;;;;;;;16.47;8.67;;;7.60;88.90;;;;;;5017939;28;20158;-91
2023/01/05 04:59:55;;;;;;;14.17;8.60;;;7.60;89.00;;;;;;5016853;28;20182;-91
2023/01/05 05:02:21;;;;;;;20.93;8.87;;;7.50;89.40;;;;;;5015510;28;20209;-92
2023/01/05 05:04:46;;;;;;;13.30;7.93;;;7.70;89.20;;;;;;5013435;28;20173;-91
2023/01/05 05:07:12;;;;;;;17.93;8.80;;;7.70;89.00;;;;;;5017211;28;20182;-91
2023/01/05 05:09:37;;;;;;;19.83;8.23;;;7.70;88.90;;;;;;4974678;28;1123955;-92
2023/01/05 05:12:03;;;;;;;20.47;8.73;;;7.80;88.80;;;;;;5018496;28;20236;-92
2023/01/05 05:14:29;;;;;;;15.17;8.73;;;7.70;88.90;;;;;;5015853;28;20217;-92
2023/01/05 05:16:54;;;;;;;17.20;8.33;;;7.70;89.10;;;;;;5015047;28;20186;-91
2023/01/05 05:19:20;;;;;;;18.40;9.27;;;7.70;89.20;;;;;;5000579;28;20285;-91
2023/01/05 05:21:45;;;;;;;17.60;9.43;;;7.70;89.10;;;;;;5011986;28;20237;-92
2023/01/05 05:24:11;;;;;;;13.53;8.40;;;7.70;88.90;;;;;;5014856;28;20253;-91
2023/01/05 05:26:37;;;;;;;13.57;9.60;;;7.70;88.80;;;;;;5006727;28;20185;-91
2023/01/05 05:29:02;;;;;;;14.77;8.20;;;7.80;88.40;;;;;;5013355;28;20174;-92
2023/01/05 05:31:28;;;;;;;14.13;8.17;;;7.80;88.30;;;;;;5002891;28;20186;-92
2023/01/05 05:33:53;;;;;;;15.23;8.87;;;7.80;88.50;;;;;;5015820;28;20189;-91
2023/01/05 05:36:19;;;;;;;19.87;8.97;;;7.70;88.60;;;;;;5020698;28;20262;-92
2023/01/05 05:38:45;;;;;;;17.23;9.27;;;7.70;88.90;;;;;;5018013;28;20174;-90
2023/01/05 05:41:10;;;;;;;22.60;9.73;;;7.70;89.00;;;;;;5017994;28;20250;-90
2023/01/05 05:43:36;;;;;;;19.03;9.40;;;7.70;88.90;;;;;;5019159;28;20182;-92
2023/01/05 05:46:01;;;;;;;24.60;10.10;;;7.60;89.00;;;;;;5019055;28;20238;-91
2023/01/05 05:48:27;;;;;;;19.00;9.80;;;7.70;88.90;;;;;;5014883;28;20229;-89
2023/01/05 05:50:53;;;;;;;28.17;10.30;;;7.70;89.00;;;;;;5018672;28;20233;-92
2023/01/05 05:53:18;;;;;;;22.47;9.87;;;7.60;89.10;;;;;;5018743;28;20182;-90
2023/01/05 05:55:50;;;;;;;15.80;9.30;;;7.60;89.20;;;;;;5016635;28;20190;-92
2023/01/05 05:58:17;;;;;;;21.93;10.07;;;7.50;89.40;;;;;;5017372;28;20178;-90
2023/01/05 06:00:43;;;;;;;16.63;9.77;;;7.60;89.40;;;;;;5019516;28;20174;-91
2023/01/05 06:03:09;;;;;;;17.33;8.57;;;7.60;89.20;;;;;;5016866;28;20291;-92
2023/01/05 06:05:34;;;;;;;20.30;9.93;;;7.60;89.20;;;;;;5017077;28;20182;-92
2023/01/05 06:08:00;;;;;;;20.30;8.93;;;7.70;89.10;;;;;;5018167;28;20193;-92
2023/01/05 06:10:26;;;;;;;12.47;8.70;;;7.70;89.20;;;;;;5016964;28;20225;-92
2023/01/05 06:12:53;;;;;;;18.13;8.57;;;7.70;88.90;;;;;;5017506;28;20594;-91
2023/01/05 06:15:19;;;;;;;21.17;10.20;;;7.80;88.90;;;;;;5018469;28;20225;-92
2023/01/05 06:17:45;;;;;;;26.83;9.60;;;7.80;88.80;;;;;;5016200;28;20162;-91
2023/01/05 06:20:11;;;;;;;19.50;10.00;;;7.80;88.80;;;;;;5017936;28;20178;-91
2023/01/05 06:22:37;;;;;;;10.73;7.73;;;7.80;89.00;;;;;;5011935;28;20284;-91
2023/01/05 06:25:03;;;;;;;18.40;10.30;;;7.80;88.50;;;;;;5016126;28;20186;-91
2023/01/05 06:27:29;;;;;;;28.47;9.97;;;7.80;88.60;;;;;;5009665;28;20362;-92
2023/01/05 06:29:54;;;;;;;31.43;9.73;;;7.80;88.70;;;;;;5018038;28;20177;-92
2023/01/05 06:32:20;;;;;;;23.37;8.90;;;7.80;88.70;;;;;;5017802;28;20210;-91
2023/01/05 06:34:48;;;;;;;13.80;8.00;;;7.80;88.40;;;;;;5013374;28;20217;-91
2023/01/05 06:37:14;;;;;;;14.93;8.67;;;7.80;88.30;;;;;;5015899;28;20182;-91
2023/01/05 06:39:40;;;;;;;22.03;8.37;;;7.80;88.40;;;;;;5015476;28;20174;-90
2023/01/05 06:42:05;;;;;;;16.93;8.83;;;7.80;88.40;;;;;;5012147;28;20236;-91
2023/01/05 06:44:31;;;;;;;24.90;8.83;;;7.90;88.00;;;;;;5015765;28;20166;-91
2023/01/05 06:46:56;;;;;;;16.97;7.93;;;7.90;87.80;;;;;;5012659;28;20213;-91
2023/01/05 06:49:22;;;;;;;23.17;8.37;;;7.80;87.60;;;;;;5015049;28;20166;-92
2023/01/05 06:51:47;;;;;;;22.43;8.43;;;7.80;87.50;;;;;;5018173;28;20194;-91
2023/01/05 06:54:13;;;;;;;23.03;9.73;;;7.80;87.60;;;;;;5018311;28;20194;-93
2023/01/05 06:56:39;;;;;;;15.20;8.43;;;7.80;87.70;;;;;;5014261;28;20182;-93
2023/01/05 06:59:04;;;;;;;23.17;8.33;;;7.80;87.40;;;;;;5013552;28;20178;-91
2023/01/05 07:01:30;;;;;;;30.63;8.83;;;7.80;87.20;;;;;;5014037;28;20185;-91
2023/01/05 07:03:56;;;;;;;16.40;7.93;;;7.90;87.20;;;;;;5015733;28;20209;-91
2023/01/05 07:06:21;;;;;;;15.50;8.80;;;7.90;87.00;;;;;;5010134;28;20190;-92
2023/01/05 07:08:47;;;;;;;23.17;8.20;;;7.90;86.90;;;;;;5010244;28;20201;-91
2023/01/05 07:11:12;;;;;;;24.40;7.97;;;7.90;86.80;;;;;;5016611;28;20193;-92
2023/01/05 07:13:38;;;;;;;20.87;8.73;;;7.90;87.00;;;;;;5014561;28;20245;-92
2023/01/05 07:16:04;;;;;;;20.50;8.90;;;7.90;87.30;;;;;;5017571;28;20217;-91
2023/01/05 07:18:30;;;;;;;14.60;8.17;;;7.90;87.40;;;;;;5017460;28;20237;-91
2023/01/05 07:20:57;;;;;;;26.13;9.30;;;7.90;87.60;;;;;;5016561;28;20173;-92
2023/01/05 07:23:23;;;;;;;22.10;8.77;;;7.90;87.70;;;;;;5017090;28;20213;-91
2023/01/05 07:25:49;;;;;;;27.80;9.50;;;7.90;87.60;;;;;;5018625;28;20178;-92
2023/01/05 07:28:14;;;;;;;20.00;8.43;;;7.90;87.80;;;;;;5015921;28;20162;-92
2023/01/05 07:30:42;;;;;;;23.77;8.50;;;7.80;88.00;;;;;;5015113;28;20182;-90
2023/01/05 07:33:08;;;;;;;26.23;9.23;;;7.90;87.90;;;;;;5017281;28;20190;-92
2023/01/05 07:35:33;;;;;;;21.40;8.40;;;7.80;87.90;;;;;;5015726;28;20205;-92
2023/01/05 07:37:59;;;;;;;20.47;9.03;;;7.80;87.60;;;;;;5018918;28;20197;-90
2023/01/05 07:40:27;;;;;;;26.23;10.60;;;7.80;87.50;;;;;;5016449;28;20181;-92
2023/01/05 07:42:53;;;;;;;21.60;9.37;;;7.80;87.80;;;;;;5018827;28;20206;-91
2023/01/05 07:45:19;;;;;;;19.03;9.00;;;7.80;87.80;;;;;;5018712;28;20197;-90
2023/01/05 07:47:45;;;;;;;26.83;9.67;;;7.80;87.90;;;;;;5016847;28;20159;-90
2023/01/05 07:50:11;;;;;;;17.97;8.77;;;7.80;87.70;;;;;;5016023;28;20193;-93
2023/01/05 07:52:38;;;;;;;26.80;9.53;;;7.80;87.50;;;;;;5018580;28;20254;-92
2023/01/05 07:55:04;;;;;;;25.27;8.63;;;7.80;87.60;;;;;;5018304;28;20241;-91
2023/01/05 07:57:29;;;;;;;21.50;8.93;;;7.80;87.70;;;;;;5016732;28;20181;-91
2023/01/05 07:59:55;;;;;;;25.07;9.37;;;7.80;88.00;;;;;;5017848;28;20193;-92
2023/01/05 08:02:20;;;;;;;28.53;9.73;;;7.80;88.00;;;;;;5018189;28;20193;-92
2023/01/05 08:04:46;;;;;;;32.37;9.23;;;7.80;88.30;;;;;;5015989;28;20258;-91
2023/01/05 08:07:13;;;;;;;19.37;9.57;;;7.70;88.30;;;;;;5017422;28;20217;-92
2023/01/05 08:12:23;;;;;;;18.67;9.30;;;7.80;88.20;;;;;;5017347;28;20192;-92
2023/01/05 08:14:49;;;;;;;25.63;9.70;;;7.80;88.30;;;;;;5013948;28;20312;-91
2023/01/05 08:17:15;;;;;;;28.00;9.87;;;7.80;88.40;;;;;;5015872;28;20177;-92
2023/01/05 08:19:40;;;;;;;22.93;9.10;;;7.80;88.30;;;;;;5016177;28;20166;-92
2023/01/05 08:22:06;;;;;;;31.03;9.33;;;7.80;88.40;;;;;;5011964;28;20209;-92
2023/01/05 08:24:31;;;;;;;26.80;9.47;;;7.80;88.40;;;;;;5014199;28;20566;-92
2023/01/05 08:26:57;;;;;;;33.13;10.40;;;7.80;88.80;;;;;;5016769;28;20258;-90
2023/01/05 08:29:29;;;;;;;30.00;11.27;;;7.70;89.30;;;;;;5018293;28;20193;-93
2023/01/05 08:31:55;;;;;;;32.97;11.30;;;7.70;89.90;;;;;;5019924;28;20177;-92
2023/01/05 08:34:27;;;;;;;27.97;12.43;;;7.60;90.60;;;;;;5022363;28;20213;-93
2023/01/05 08:36:53;;;;;;;29.63;13.43;;;7.60;90.70;;;;;;5022477;28;20170;-92
2023/01/05 09:39:29;;;;;;;27.23;16.07;;;7.10;92.90;;;;;;3349539;26;20208;-92
2023/01/05 09:41:59;;;;;;;27.97;15.60;;;7.20;92.90;;;;;;5031315;28;20174;-92
2023/01/05 09:44:31;;;;;;;33.80;15.83;;;7.20;92.90;;;;;;5022908;28;20173;-92
2023/01/05 09:47:24;;;;;;;25.70;15.60;;;7.20;92.90;;;;;;5032713;28;20177;-93
2023/01/05 09:49:50;;;;;;;32.30;15.60;;;7.10;92.90;;;;;;5039298;28;20215;-91
2023/01/05 09:52:19;;;;;;;28.13;14.73;;;7.20;92.90;;;;;;5040581;28;20186;-91
2023/01/05 09:54:47;;;;;;;79.93;20.37;;;7.20;92.80;;;;;;5038333;28;20201;-92
2023/01/05 09:57:29;;;;;;;29.37;15.73;;;7.20;92.80;;;;;;5032014;28;20181;-92
2023/01/05 10:00:04;;;;;;;38.23;14.80;;;7.20;92.70;;;;;;5015044;28;20185;-91
2023/01/05 10:02:47;;;;;;;33.10;14.80;;;7.20;92.60;;;;;;5039602;28;20212;-93
2023/01/05 10:05:14;;;;;;;32.27;15.13;;;7.20;92.60;;;;;;5040553;28;20150;-92
2023/01/05 10:08:16;;;;;;;29.37;15.10;;;7.30;92.60;;;;;;5038196;28;20161;-93
2023/01/05 10:14:15;;;;;;;34.87;16.97;;;7.30;92.50;;;;;;5039172;28;20189;-93
2023/01/05 10:16:43;;;;;;;35.53;16.17;;;7.30;92.50;;;;;;5039880;28;20165;-93
2023/01/05 10:19:14;;;;;;;43.20;17.20;;;7.30;92.40;;;;;;5036471;28;20173;-93
2023/01/05 10:22:20;;;;;;;34.50;16.50;;;7.30;92.20;;;;;;5037708;28;20165;-92
2023/01/05 10:24:57;;;;;;;36.20;16.93;;;7.20;92.30;;;;;;5015246;28;20235;-92
2023/01/05 10:27:36;;;;;;;31.67;15.53;;;7.30;92.30;;;;;;5037742;28;20169;-90
2023/01/05 10:30:51;;;;;;;32.80;15.43;;;7.30;92.30;;;;;;5035076;28;20177;-92
2023/01/05 10:33:29;;;;;;;33.93;17.17;;;7.30;92.30;;;;;;5012769;28;20267;-93
2023/01/05 10:36:39;;;;;;;35.40;16.27;;;7.30;92.30;;;;;;5038252;28;20193;-92
2023/01/05 10:39:17;;;;;;;40.07;16.83;;;7.30;92.40;;;;;;5020888;28;20197;-91
2023/01/05 10:42:00;;;;;;;34.00;16.53;;;7.20;92.40;;;;;;5029536;28;20180;-91
2023/01/05 10:45:03;;;;;;;30.87;17.70;;;7.20;92.40;;;;;;5017192;28;20248;-92
2023/01/05 10:47:34;;;;;;;25.43;17.20;;;7.20;92.50;;;;;;5016720;28;20173;-90
2023/01/05 10:50:01;;;;;;;30.57;17.50;;;7.20;92.50;;;;;;5024568;28;20169;-92
2023/01/05 10:52:26;;;;;;;40.70;17.83;;;7.20;92.60;;;;;;5023675;28;20213;-91
2023/01/05 10:54:58;;;;;;;35.20;18.43;;;7.20;92.70;;;;;;5027632;28;20216;-92
2023/01/05 10:57:36;;;;;;;32.73;18.53;;;7.20;92.70;;;;;;5022813;28;20172;-92
2023/01/05 11:00:17;;;;;;;30.47;18.33;;;7.20;92.70;;;;;;5021898;28;20236;-92
2023/01/05 11:02:59;;;;;;;41.80;19.70;;;7.20;92.80;;;;;;5032600;28;20209;-93
2023/01/05 11:05:44;;;;;;;39.30;19.27;;;7.30;92.90;;;;;;5039298;28;20185;-93
2023/01/05 11:29:12;;;;;;;30.47;17.23;;;7.70;92.60;;;;;;2669140;22;20295;-90
2023/01/05 11:31:45;;;;;;;37.07;16.83;;;7.60;92.40;;;;;;5025757;28;20192;-92
2023/01/05 11:34:41;;;;;;;30.50;16.90;;;7.70;92.20;;;;;;5003364;28;20261;-91
2023/01/05 11:37:29;;;;;;;36.00;16.83;;;7.70;92.20;;;;;;5000335;28;20166;-92
2023/01/05 11:39:55;;;;;;;34.90;15.87;;;7.70;92.10;;;;;;5002191;28;20268;-92
2023/01/05 11:42:24;;;;;;;38.73;15.87;;;7.80;92.00;;;;;;5015707;28;20220;-91
2023/01/05 11:44:56;;;;;;;28.87;16.10;;;7.80;91.80;;;;;;5014989;28;20221;-91
2023/01/05 11:47:33;;;;;;;29.43;16.30;;;7.70;91.80;;;;;;5011206;28;20171;-92
2023/01/05 11:50:15;;;;;;;35.17;17.60;;;7.70;91.70;;;;;;5013887;28;20317;-92
2023/01/05 11:52:43;;;;;;;24.20;17.30;;;7.70;92.00;;;;;;5018646;28;20182;-90
2023/01/05 11:55:32;;;;;;;42.93;18.80;;;7.60;92.30;;;;;;5014643;28;20210;-91
2023/01/05 11:58:16;;;;;;;33.07;18.20;;;7.50;92.60;;;;;;5013188;28;20220;-90
2023/01/05 12:00:59;;;;;;;30.40;19.73;;;7.60;92.80;;;;;;5016502;28;20182;-92
2023/01/05 12:03:36;;;;;;;27.07;20.07;;;7.60;93.00;;;;;;4997554;28;20690;-90
2023/01/05 12:06:30;;;;;;;23.77;20.20;;;7.50;93.10;;;;;;4996176;28;20173;-91
2023/01/05 12:09:33;;;;;;;22.30;19.70;;;7.60;93.20;;;;;;4996224;28;20170;-91
2023/01/05 12:12:08;;;;;;;26.60;20.80;;;7.50;93.20;;;;;;4973575;28;20185;-89
2023/01/05 12:14:33;;;;;;;25.90;21.73;;;7.60;93.30;;;;;;4993925;28;20280;-91
2023/01/05 12:17:05;;;;;;;31.87;21.73;;;7.60;93.30;;;;;;4998431;28;20236;-91
2023/01/05 12:20:00;;;;;;;31.00;21.13;;;7.60;93.30;;;;;;5009427;28;20189;-91
2023/01/05 12:22:29;;;;;;;37.37;21.70;;;7.70;93.30;;;;;;5008440;28;20209;-92
2023/01/05 12:25:00;;;;;;;33.53;23.90;;;7.80;93.40;;;;;;5014295;28;20170;-92
2023/01/05 12:27:44;;;;;;;25.20;21.03;;;7.90;93.30;;;;;;5013338;28;20166;-92
2023/01/05 12:30:46;;;;;;;27.73;19.87;;;7.80;93.20;;;;;;5006897;28;20190;-91
2023/01/05 12:33:30;;;;;;;29.30;19.23;;;7.80;93.10;;;;;;5000168;28;20667;-91
2023/01/05 12:36:26;;;;;;;21.70;18.30;;;7.80;93.00;;;;;;5002969;28;20201;-92
2023/01/05 12:39:55;;;;;;;32.07;18.03;;;7.80;92.90;;;;;;5002143;28;20170;-91
2023/01/05 12:42:36;;;;;;;25.03;17.20;;;7.80;92.80;;;;;;4967209;28;20194;-91
2023/01/05 12:45:27;;;;;;;29.10;18.10;;;7.80;92.60;;;;;;5024417;28;20221;-91
2023/01/05 12:48:48;;;;;;;28.27;16.73;;;7.80;92.40;;;;;;5015977;28;20197;-91
2023/01/05 13:10:05;;;;;;;25.87;16.70;;;8.00;91.90;;;;;;5010714;28;20198;-92
2023/01/05 13:12:37;;;;;;;24.57;16.27;;;8.00;91.70;;;;;;5008885;28;20194;-91
2023/01/05 13:15:32;;;;;;;29.30;15.77;;;8.20;91.70;;;;;;5004058;28;20198;-92
2023/01/05 13:18:02;;;;;;;23.97;14.17;;;8.20;91.30;;;;;;4997206;28;20241;-91
2023/01/05 13:20:41;;;;;;;33.20;14.80;;;8.00;90.90;;;;;;5000814;28;20269;-91
2023/01/05 13:23:20;;;;;;;24.90;15.43;;;8.00;90.80;;;;;;4998190;28;20196;-90
2023/01/05 13:25:59;;;;;;;20.97;14.83;;;7.90;90.80;;;;;;4996453;28;20568;-90
2023/01/05 13:28:25;;;;;;;18.73;13.97;;;7.90;90.70;;;;;;4996472;28;20201;-90
2023/01/05 13:31:28;;;;;;;18.33;14.33;;;7.90;90.60;;;;;;4997054;28;20182;-90
2023/01/05 13:34:15;;;;;;;24.87;15.77;;;7.90;90.60;;;;;;4997332;28;20201;-90
2023/01/05 13:36:46;;;;;;;23.10;14.37;;;7.90;90.50;;;;;;4997784;28;20268;-89
2023/01/05 13:39:42;;;;;;;30.23;16.70;;;7.90;90.50;;;;;;5011368;28;20170;-91
2023/01/05 13:42:40;;;;;;;24.80;14.80;;;7.80;90.60;;;;;;5004807;28;20682;-90
2023/01/05 13:45:27;;;;;;;26.23;15.53;;;7.80;90.60;;;;;;5004297;28;20190;-91
2023/01/05 13:48:14;;;;;;;18.33;14.87;;;7.70;90.70;;;;;;4998697;28;20232;-91
2023/01/05 13:51:10;;;;;;;24.50;16.50;;;7.70;90.80;;;;;;5001573;28;20181;-90
2023/01/05 13:53:40;;;;;;;32.07;16.60;;;7.70;90.90;;;;;;5004168;28;20198;-91
2023/01/05 13:56:18;;;;;;;21.47;16.70;;;7.70;91.10;;;;;;4998405;28;20194;-89
2023/01/05 13:58:47;;;;;;;23.60;18.20;;;7.70;91.20;;;;;;4995546;28;20162;-89
2023/01/05 14:01:35;;;;;;;23.00;18.53;;;7.70;91.40;;;;;;4996428;28;20166;-91
2023/01/05 14:04:01;;;;;;;24.40;17.37;;;7.70;91.40;;;;;;4997379;28;20238;-90
2023/01/05 14:06:33;;;;;;;24.07;17.73;;;7.70;91.60;;;;;;4995311;28;20557;-89
2023/01/05 14:09:04;;;;;;;22.13;18.00;;;7.60;91.50;;;;;;4995552;28;20200;-88
2023/01/05 14:11:29;;;;;;;25.23;17.80;;;7.50;91.60;;;;;;4998358;28;20225;-90
2023/01/05 14:14:07;;;;;;;34.57;19.40;;;7.50;91.70;;;;;;5001792;28;20202;-90
2023/01/05 14:16:38;;;;;;;19.07;17.17;;;7.50;91.90;;;;;;4995353;28;20169;-90
2023/01/05 14:19:32;;;;;;;28.73;18.77;;;7.50;91.90;;;;;;4996266;28;20155;-89
2023/01/05 14:22:03;;;;;;;31.67;18.57;;;7.40;92.00;;;;;;4995805;28;20175;-89
2023/01/05 14:24:46;;;;;;;31.07;18.77;;;7.40;92.00;;;;;;4995072;28;20186;-90
2023/01/05 14:27:14;;;;;;;22.60;16.93;;;7.40;92.00;;;;;;4994620;28;20186;-90
2023/01/05 14:29:43;;;;;;;22.83;17.07;;;7.40;91.90;;;;;;4995225;28;20225;-90
2023/01/05 14:32:11;;;;;;;25.43;17.13;;;7.30;91.90;;;;;;4995873;28;20194;-89
2023/01/05 14:34:43;;;;;;;22.73;17.83;;;7.30;91.80;;;;;;4994461;28;20205;-90
2023/01/05 14:37:20;;;;;;;23.60;16.77;;;7.20;91.80;;;;;;4995479;28;20691;-89
2023/01/05 14:39:47;;;;;;;23.33;16.97;;;7.10;91.70;;;;;;4994445;28;20585;-90
2023/01/05 14:42:12;;;;;;;24.53;18.37;;;7.10;91.70;;;;;;4994146;28;20285;-90
2023/01/05 14:44:59;;;;;;;17.17;15.37;;;7.10;91.70;;;;;;4995404;28;20268;-90
2023/01/05 14:47:46;;;;;;;19.50;15.90;;;6.90;91.60;;;;;;4994249;28;20182;-90
2023/01/05 14:50:31;;;;;;;22.17;17.57;;;6.90;91.70;;;;;;4994107;28;20277;-90
2023/01/05 14:53:03;;;;;;;21.90;17.30;;;6.80;91.70;;;;;;4995214;28;20217;-89
2023/01/05 14:55:33;;;;;;;19.03;16.50;;;6.80;91.80;;;;;;4995320;28;20237;-89
2023/01/05 14:58:01;;;;;;;19.67;17.37;;;6.80;91.80;;;;;;4995582;28;20210;-89
2023/01/05 15:00:49;;;;;;;28.00;17.77;;;6.70;91.90;;;;;;4993977;28;20178;-89
2023/01/05 15:03:38;;;;;;;19.83;17.27;;;6.70;92.00;;;;;;4995240;28;20190;-89
2023/01/05 15:06:40;;;;;;;31.93;17.30;;;6.70;92.00;;;;;;4995006;28;20177;-90
2023/01/05 15:12:34;;;;;;;20.37;17.20;;;6.80;92.10;;;;;;4994834;28;20281;-89
2023/01/05 15:15:06;;;;;;;27.20;17.17;;;6.70;92.10;;;;;;4995111;28;20557;-89
2023/01/05 15:17:46;;;;;;;20.20;16.60;;;6.60;92.20;;;;;;4993548;28;20166;-89
2023/01/05 15:20:21;;;;;;;33.30;18.07;;;6.70;92.30;;;;;;4995017;28;20201;-89
2023/01/05 15:23:18;;;;;;;27.77;17.97;;;6.70;92.30;;;;;;4993962;28;20259;-91
2023/01/05 15:29:18;;;;;;;30.33;18.17;;;6.80;92.30;;;;;;4994505;28;20157;-90
2023/01/05 15:34:40;;;;;;;22.60;17.90;;;6.80;92.30;;;;;;5246180;22;20271;-90
2023/01/05 15:37:50;;;;;;;30.20;18.40;;;6.80;92.40;;;;;;5014245;28;20654;-90
2023/01/05 15:40:22;;;;;;;23.63;18.97;;;6.80;92.40;;;;;;5013987;28;20566;-90
2023/01/05 15:42:53;;;;;;;20.90;18.20;;;6.80;92.40;;;;;;5059039;23;20222;-90
2023/01/05 15:45:41;;;;;;;27.43;19.40;;;6.80;92.40;;;;;;4993003;28;20182;-90
2023/01/05 15:48:40;;;;;;;27.83;19.43;;;6.80;92.40;;;;;;4995408;28;20154;-90
2023/01/05 15:51:36;;;;;;;21.70;19.40;;;6.80;92.50;;;;;;4993539;28;20190;-92
2023/01/05 16:04:21;;;;;;;23.80;17.73;;;6.90;92.50;;;;;;4999998;28;20213;-92
2023/01/05 16:06:57;;;;;;;19.50;16.03;;;7.00;92.50;;;;;;4996030;28;20629;-90
2023/01/05 16:09:34;;;;;;;24.30;16.73;;;6.80;92.30;;;;;;4999003;28;20200;-92
2023/01/05 16:12:08;;;;;;;25.97;16.80;;;6.70;92.30;;;;;;4994731;28;20181;-92
2023/01/05 16:14:42;;;;;;;23.10;17.43;;;6.60;92.20;;;;;;4974393;28;20245;-92
2023/01/05 16:17:18;;;;;;;21.07;17.03;;;6.50;92.20;;;;;;4977074;28;20201;-92
2023/01/05 16:19:52;;;;;;;22.80;16.70;;;6.50;92.40;;;;;;4976199;28;20166;-92
2023/01/05 16:22:25;;;;;;;24.57;16.20;;;6.60;92.40;;;;;;4974633;28;20202;-92
2023/01/05 16:25:01;;;;;;;21.13;15.70;;;6.50;92.30;;;;;;4980554;28;20185;-93
2023/01/05 16:27:28;;;;;;;21.90;15.73;;;6.40;92.20;;;;;;4977501;28;20173;-93
2023/01/05 16:29:54;;;;;;;25.70;18.00;;;6.40;92.20;;;;;;4978995;28;20179;-92
2023/01/05 16:32:40;;;;;;;25.03;19.33;;;6.30;92.20;;;;;;4978541;28;20222;-93
2023/01/05 16:35:19;;;;;;;27.97;18.73;;;6.20;92.30;;;;;;4977263;28;20194;-93
2023/01/05 16:38:00;;;;;;;27.90;18.47;;;6.10;92.40;;;;;;4994327;28;20285;-92
2023/01/05 16:40:26;;;;;;;19.37;17.27;;;6.20;92.60;;;;;;4978407;28;20588;-93
2023/01/05 16:42:51;;;;;;;20.83;15.87;;;6.20;92.60;;;;;;4980164;28;20190;-93
2023/01/05 16:45:21;;;;;;;19.80;16.00;;;6.20;92.60;;;;;;4981679;28;20222;-92
2023/01/05 16:53:47;;;;;;;20.47;14.87;;;6.20;92.30;;;;;;5114584;23;20244;-92
2023/01/05 16:56:54;;;;;;;21.87;14.67;;;6.10;92.10;;;;;;5008885;28;20201;-92
2023/01/05 17:02:48;;;;;;;19.53;15.53;;;6.00;92.00;;;;;;5030986;28;20721;-92
2023/01/05 17:05:17;;;;;;;23.87;15.03;;;5.90;91.90;;;;;;5023638;28;20173;-92
2023/01/05 17:07:45;;;;;;;17.03;14.53;;;5.90;91.90;;;;;;5005254;28;20237;-93
2023/01/05 17:16:28;;;;;;;15.30;13.77;;;5.80;91.80;;;;;;5005022;28;20233;-92
2023/01/05 17:18:53;;;;;;;15.63;13.93;;;5.70;91.60;;;;;;5005632;28;20254;-92